createdAt,value
2022-12-12T00:00:25.679Z,25.50
2022-12-12T00:01:25.683Z,25.00
2022-12-12T00:02:26.752Z,23.80
2022-12-12T00:03:25.838Z,25.10
2022-12-12T00:04:25.650Z,24.90
2022-12-12T00:05:25.629Z,24.00
2022-12-12T00:06:25.626Z,25.50
2022-12-12T00:07:25.631Z,24.10
2022-12-12T00:08:25.619Z,24.50
2022-12-12T00:09:25.564Z,24.80
2022-12-12T00:10:25.568Z,23.90
2022-12-12T00:11:25.564Z,24.30
2022-12-12T00:12:25.542Z,24.30
2022-12-12T00:13:25.531Z,25.70
2022-12-12T00:14:25.534Z,25.30
2022-12-12T00:15:25.507Z,25.10
2022-12-12T00:16:25.547Z,25.10
2022-12-12T00:17:25.492Z,25.70
2022-12-12T00:18:25.470Z,25.30
2022-12-12T00:19:25.462Z,24.60
2022-12-12T00:20:25.478Z,23.80
2022-12-12T00:21:25.489Z,25.80
2022-12-12T00:22:25.428Z,24.70
2022-12-12T00:23:25.413Z,25.50
2022-12-12T00:24:25.412Z,26.00
2022-12-12T00:25:25.395Z,24.60
2022-12-12T00:26:25.407Z,25.60
2022-12-12T00:27:25.376Z,25.00
2022-12-12T00:28:25.369Z,25.40
2022-12-12T00:29:25.371Z,26.00
2022-12-12T00:30:25.374Z,25.30
2022-12-12T00:31:25.432Z,25.30
2022-12-12T00:32:25.342Z,25.20
2022-12-12T00:33:25.305Z,24.60
2022-12-12T00:34:25.317Z,25.50
2022-12-12T00:35:25.295Z,24.60
2022-12-12T00:36:25.281Z,24.20
2022-12-12T00:37:25.282Z,24.20
2022-12-12T00:38:25.247Z,24.80
2022-12-12T00:39:25.239Z,25.80
2022-12-12T00:40:25.237Z,25.20
2022-12-12T00:41:25.257Z,24.30
2022-12-12T00:42:25.204Z,25.00
2022-12-12T00:43:25.219Z,24.70
2022-12-12T00:44:25.202Z,25.10
2022-12-12T00:45:25.177Z,25.60
2022-12-12T00:46:25.355Z,25.50
2022-12-12T00:47:25.160Z,25.70
2022-12-12T00:48:25.138Z,25.20
2022-12-12T00:49:25.138Z,24.20
2022-12-12T00:50:25.121Z,24.10
2022-12-12T00:51:25.156Z,24.70
2022-12-12T00:52:25.115Z,24.10
2022-12-12T00:53:25.114Z,25.40
2022-12-12T00:54:25.068Z,23.80
2022-12-12T00:55:25.069Z,24.30
2022-12-12T00:56:25.077Z,24.10
2022-12-12T00:57:25.076Z,25.20
2022-12-12T00:58:25.074Z,25.70
2022-12-12T00:59:25.068Z,26.30
2022-12-12T01:00:25.017Z,24.40
2022-12-12T01:01:25.120Z,23.80
2022-12-12T01:02:28.236Z,25.10
2022-12-12T01:03:24.983Z,25.70
2022-12-12T01:04:24.980Z,25.50
2022-12-12T01:05:24.975Z,23.80
2022-12-12T01:06:24.941Z,25.30
2022-12-12T01:07:24.934Z,25.30
2022-12-12T01:08:24.997Z,24.00
2022-12-12T01:09:24.937Z,25.00
2022-12-12T01:10:24.910Z,24.90
2022-12-12T01:11:24.893Z,26.10
2022-12-12T01:12:24.885Z,24.60
2022-12-12T01:13:24.867Z,24.00
2022-12-12T01:14:24.913Z,24.20
2022-12-12T01:15:24.849Z,25.10
2022-12-12T01:16:26.003Z,25.70
2022-12-12T01:17:24.822Z,24.20
2022-12-12T01:18:24.843Z,25.10
2022-12-12T01:19:24.800Z,23.80
2022-12-12T01:20:24.812Z,24.70
2022-12-12T01:21:24.806Z,25.30
2022-12-12T01:22:24.769Z,26.20
2022-12-12T01:23:24.763Z,24.20
2022-12-12T01:24:24.772Z,24.10
2022-12-12T01:25:24.732Z,23.50
2022-12-12T01:26:24.724Z,25.00
2022-12-12T01:27:24.713Z,25.10
2022-12-12T01:28:24.727Z,23.90
2022-12-12T01:29:24.691Z,25.30
2022-12-12T01:30:24.686Z,23.90
2022-12-12T01:31:24.700Z,24.40
2022-12-12T01:32:24.655Z,25.10
2022-12-12T01:33:24.647Z,24.80
2022-12-12T01:34:24.688Z,23.60
2022-12-12T01:35:24.626Z,24.40
2022-12-12T01:36:24.620Z,23.80
2022-12-12T01:37:24.606Z,24.50
2022-12-12T01:38:24.629Z,25.20
2022-12-12T01:39:24.591Z,24.50
2022-12-12T01:40:24.595Z,24.60
2022-12-12T01:41:24.563Z,24.10
2022-12-12T01:42:24.560Z,24.90
2022-12-12T01:43:24.538Z,24.00
2022-12-12T01:44:24.534Z,25.20
2022-12-12T01:45:24.514Z,25.00
2022-12-12T01:46:24.573Z,24.00
2022-12-12T01:47:24.502Z,23.80
2022-12-12T01:48:25.506Z,24.20
2022-12-12T01:49:24.469Z,24.30
2022-12-12T01:50:24.488Z,24.60
2022-12-12T01:51:24.451Z,23.80
2022-12-12T01:52:24.470Z,24.50
2022-12-12T01:53:24.427Z,24.00
2022-12-12T01:54:24.420Z,24.70
2022-12-12T01:55:24.417Z,24.50
2022-12-12T01:56:24.405Z,25.30
2022-12-12T01:57:24.462Z,24.50
2022-12-12T01:58:24.381Z,25.00
2022-12-12T01:59:24.358Z,23.40
2022-12-12T02:00:24.455Z,24.10
2022-12-12T02:01:24.350Z,24.30
2022-12-12T02:02:24.375Z,23.80
2022-12-12T02:03:25.397Z,23.30
2022-12-12T02:04:24.303Z,23.40
2022-12-12T02:05:24.320Z,24.00
2022-12-12T02:06:24.305Z,24.80
2022-12-12T02:07:24.312Z,23.70
2022-12-12T02:08:24.289Z,24.40
2022-12-12T02:09:24.261Z,24.90
2022-12-12T02:10:24.238Z,24.60
2022-12-12T02:11:24.240Z,25.00
2022-12-12T02:12:24.245Z,23.90
2022-12-12T02:13:24.216Z,23.80
2022-12-12T02:14:24.203Z,23.70
2022-12-12T02:15:24.190Z,23.60
2022-12-12T02:16:24.244Z,24.10
2022-12-12T02:17:24.176Z,24.40
2022-12-12T02:18:24.165Z,24.50
2022-12-12T02:19:24.153Z,23.70
2022-12-12T02:20:24.135Z,23.70
2022-12-12T02:21:24.955Z,24.10
2022-12-12T02:22:24.157Z,24.10
2022-12-12T02:23:24.109Z,24.50
2022-12-12T02:24:26.041Z,24.80
2022-12-12T02:25:25.090Z,23.70
2022-12-12T02:26:24.090Z,23.00
2022-12-12T02:27:24.060Z,24.10
2022-12-12T02:28:24.054Z,22.50
2022-12-12T02:29:24.043Z,24.80
2022-12-12T02:30:24.042Z,24.90
2022-12-12T02:31:24.149Z,24.40
2022-12-12T02:32:24.002Z,24.10
2022-12-12T02:33:24.002Z,24.10
2022-12-12T02:34:23.964Z,24.10
2022-12-12T02:35:23.977Z,24.70
2022-12-12T02:36:23.951Z,23.50
2022-12-12T02:37:23.977Z,23.70
2022-12-12T02:38:23.949Z,25.20
2022-12-12T02:39:23.938Z,25.80
2022-12-12T02:40:23.948Z,23.40
2022-12-12T02:41:23.912Z,22.60
2022-12-12T02:42:23.931Z,22.30
2022-12-12T02:43:23.881Z,23.10
2022-12-12T02:44:23.876Z,23.20
2022-12-12T02:45:23.855Z,23.70
2022-12-12T02:46:23.909Z,22.80
2022-12-12T02:47:23.840Z,24.00
2022-12-12T02:48:23.855Z,25.00
2022-12-12T02:49:23.826Z,24.60
2022-12-12T02:50:23.813Z,24.10
2022-12-12T02:51:23.802Z,25.40
2022-12-12T02:52:23.781Z,23.20
2022-12-12T02:53:23.792Z,23.30
2022-12-12T02:54:23.782Z,22.70
2022-12-12T02:55:23.758Z,23.10
2022-12-12T02:56:23.750Z,23.70
2022-12-12T02:57:23.735Z,23.50
2022-12-12T02:58:23.740Z,23.80
2022-12-12T02:59:23.737Z,23.70
2022-12-12T03:00:23.696Z,23.10
2022-12-12T03:01:23.692Z,23.50
2022-12-12T03:02:23.726Z,24.40
2022-12-12T03:03:23.663Z,23.80
2022-12-12T03:04:23.658Z,23.70
2022-12-12T03:05:23.676Z,23.60
2022-12-12T03:06:23.622Z,24.00
2022-12-12T03:07:23.627Z,23.50
2022-12-12T03:08:23.648Z,24.90
2022-12-12T03:09:23.611Z,24.70
2022-12-12T03:10:23.607Z,24.00
2022-12-12T03:11:23.595Z,24.70
2022-12-12T03:12:23.560Z,24.00
2022-12-12T03:13:23.577Z,24.00
2022-12-12T03:14:23.542Z,23.50
2022-12-12T03:15:23.542Z,23.50
2022-12-12T03:16:23.607Z,24.20
2022-12-12T03:17:23.506Z,24.20
2022-12-12T03:18:23.495Z,24.70
2022-12-12T03:19:23.497Z,24.10
2022-12-12T03:20:23.471Z,24.60
2022-12-12T03:21:23.478Z,25.20
2022-12-12T03:22:23.477Z,24.30
2022-12-12T03:23:23.444Z,24.10
2022-12-12T03:24:23.456Z,24.90
2022-12-12T03:25:23.431Z,25.00
2022-12-12T03:26:23.439Z,24.70
2022-12-12T03:27:23.438Z,25.60
2022-12-12T03:28:23.409Z,25.10
2022-12-12T03:29:23.386Z,26.10
2022-12-12T03:30:23.395Z,24.60
2022-12-12T03:31:23.418Z,24.50
2022-12-12T03:32:23.352Z,24.30
2022-12-12T03:33:23.352Z,24.70
2022-12-12T03:34:24.395Z,25.20
2022-12-12T03:35:23.309Z,23.80
2022-12-12T03:36:23.295Z,27.00
2022-12-12T03:37:23.293Z,24.80
2022-12-12T03:38:23.282Z,26.00
2022-12-12T03:39:23.279Z,26.80
2022-12-12T03:40:23.283Z,26.00
2022-12-12T03:41:23.247Z,24.90
2022-12-12T03:42:23.257Z,25.70
2022-12-12T03:43:23.220Z,24.80
2022-12-12T03:44:23.223Z,25.00
2022-12-12T03:45:23.224Z,25.50
2022-12-12T03:46:24.230Z,25.70
2022-12-12T03:47:23.185Z,26.00
2022-12-12T03:48:23.175Z,26.10
2022-12-12T03:49:23.160Z,25.30
2022-12-12T03:50:23.168Z,26.00
2022-12-12T03:51:23.153Z,25.90
2022-12-12T03:52:23.156Z,25.80
2022-12-12T03:53:23.120Z,25.70
2022-12-12T03:54:23.105Z,26.00
2022-12-12T03:55:23.095Z,25.30
2022-12-12T03:56:23.103Z,25.00
2022-12-12T03:57:23.074Z,25.70
2022-12-12T03:58:24.168Z,24.80
2022-12-12T03:59:27.320Z,25.20
2022-12-12T04:00:23.065Z,25.80
2022-12-12T04:01:23.042Z,26.90
2022-12-12T04:02:23.096Z,25.70
2022-12-12T04:03:23.007Z,25.50
2022-12-12T04:04:23.026Z,25.30
2022-12-12T04:05:22.984Z,26.00
2022-12-12T04:06:22.983Z,25.90
2022-12-12T04:07:22.962Z,25.40
2022-12-12T04:08:22.981Z,24.80
2022-12-12T04:09:22.949Z,24.10
2022-12-12T04:10:22.954Z,24.30
2022-12-12T04:11:22.922Z,24.80
2022-12-12T04:12:22.912Z,24.40
2022-12-12T04:13:27.474Z,24.20
2022-12-12T04:14:23.901Z,24.10
2022-12-12T04:15:22.886Z,25.20
2022-12-12T04:16:22.939Z,24.30
2022-12-12T04:17:23.876Z,23.60
2022-12-12T04:18:22.836Z,24.30
2022-12-12T04:19:22.831Z,23.80
2022-12-12T04:20:22.922Z,26.00
2022-12-12T04:21:22.813Z,25.00
2022-12-12T04:22:27.103Z,25.50
2022-12-12T04:23:22.794Z,24.50
2022-12-12T04:24:22.770Z,24.80
2022-12-12T04:25:22.775Z,25.80
2022-12-12T04:26:22.750Z,25.10
2022-12-12T04:27:22.755Z,24.20
2022-12-12T04:28:22.757Z,23.90
2022-12-12T04:29:22.749Z,23.60
2022-12-12T04:30:22.727Z,23.90
2022-12-12T04:31:23.773Z,24.40
2022-12-12T04:32:22.690Z,25.40
2022-12-12T04:33:22.686Z,24.10
2022-12-12T04:34:22.697Z,24.30
2022-12-12T04:35:22.653Z,25.30
2022-12-12T04:36:22.645Z,23.90
2022-12-12T04:37:22.656Z,24.10
2022-12-12T04:38:22.637Z,24.80
2022-12-12T04:39:22.607Z,25.60
2022-12-12T04:40:22.631Z,23.80
2022-12-12T04:41:22.584Z,25.50
2022-12-12T04:42:22.589Z,25.10
2022-12-12T04:43:22.590Z,24.70
2022-12-12T04:44:22.555Z,24.50
2022-12-12T04:45:22.581Z,24.00
2022-12-12T04:46:22.613Z,24.90
2022-12-12T04:47:22.530Z,25.10
2022-12-12T04:48:22.530Z,25.10
2022-12-12T04:49:22.510Z,24.20
2022-12-12T04:50:22.484Z,25.30
2022-12-12T04:51:22.505Z,25.50
2022-12-12T04:52:22.479Z,25.70
2022-12-12T04:53:22.462Z,25.40
2022-12-12T04:54:22.456Z,26.10
2022-12-12T04:55:22.442Z,26.30
2022-12-12T04:56:22.468Z,26.70
2022-12-12T04:57:22.409Z,25.10
2022-12-12T04:58:22.417Z,25.70
2022-12-12T04:59:22.399Z,26.30
2022-12-12T05:00:22.394Z,25.20
2022-12-12T05:01:22.420Z,26.60
2022-12-12T05:02:22.466Z,25.20
2022-12-12T05:03:22.388Z,24.30
2022-12-12T05:04:22.363Z,25.40
2022-12-12T05:05:22.336Z,24.40
2022-12-12T05:06:22.329Z,25.60
2022-12-12T05:07:22.342Z,26.20
2022-12-12T05:08:22.366Z,26.50
2022-12-12T05:09:22.285Z,24.70
2022-12-12T05:10:22.306Z,24.20
2022-12-12T05:11:22.288Z,25.00
2022-12-12T05:12:22.274Z,26.50
2022-12-12T05:13:22.248Z,25.00
2022-12-12T05:14:22.227Z,25.10
2022-12-12T05:15:22.248Z,25.10
2022-12-12T05:16:22.250Z,24.70
2022-12-12T05:17:22.211Z,25.80
2022-12-12T05:18:22.219Z,25.80
2022-12-12T05:19:22.196Z,25.50
2022-12-12T05:20:22.165Z,25.00
2022-12-12T05:21:22.153Z,25.10
2022-12-12T05:22:22.147Z,26.80
2022-12-12T05:23:22.188Z,25.70
2022-12-12T05:24:22.121Z,26.00
2022-12-12T05:25:22.116Z,24.50
2022-12-12T05:26:22.104Z,24.50
2022-12-12T05:27:22.087Z,24.70
2022-12-12T05:28:22.081Z,26.10
2022-12-12T05:29:22.093Z,24.70
2022-12-12T05:30:23.074Z,25.90
2022-12-12T05:31:22.053Z,25.30
2022-12-12T05:32:22.061Z,25.20
2022-12-12T05:33:22.040Z,24.90
2022-12-12T05:34:22.045Z,25.20
2022-12-12T05:35:22.020Z,25.50
2022-12-12T05:36:21.993Z,27.20
2022-12-12T05:37:22.010Z,25.30
2022-12-12T05:38:21.977Z,25.50
2022-12-12T05:39:21.961Z,24.20
2022-12-12T05:40:21.969Z,25.90
2022-12-12T05:41:21.945Z,25.90
2022-12-12T05:42:21.960Z,25.90
2022-12-12T05:43:26.426Z,24.60
2022-12-12T05:44:21.904Z,26.60
2022-12-12T05:45:21.901Z,26.10
2022-12-12T05:46:21.935Z,24.10
2022-12-12T05:47:21.891Z,25.20
2022-12-12T05:48:24.471Z,24.40
2022-12-12T05:49:21.855Z,26.10
2022-12-12T05:50:21.857Z,25.60
2022-12-12T05:51:21.832Z,24.00
2022-12-12T05:52:21.820Z,25.00
2022-12-12T05:53:21.835Z,24.50
2022-12-12T05:54:21.821Z,26.00
2022-12-12T05:55:21.813Z,25.40
2022-12-12T05:56:21.774Z,25.80
2022-12-12T05:57:21.765Z,25.70
2022-12-12T05:58:21.762Z,25.50
2022-12-12T05:59:21.786Z,25.30
2022-12-12T06:00:21.742Z,25.20
2022-12-12T06:01:21.720Z,26.00
2022-12-12T06:02:21.749Z,24.90
2022-12-12T06:03:21.706Z,25.90
2022-12-12T06:04:21.755Z,24.80
2022-12-12T06:05:21.706Z,24.70
2022-12-12T06:06:21.689Z,24.90
2022-12-12T06:07:42.661Z,24.50
2022-12-12T06:08:25.039Z,24.40
2022-12-12T06:09:21.657Z,25.20
2022-12-12T06:10:21.634Z,25.10
2022-12-12T06:11:21.622Z,25.40
2022-12-12T06:12:21.599Z,25.30
2022-12-12T06:13:21.579Z,26.80
2022-12-12T06:14:21.574Z,25.40
2022-12-12T06:15:21.596Z,25.10
2022-12-12T06:16:21.602Z,25.60
2022-12-12T06:17:21.549Z,25.60
2022-12-12T06:18:21.548Z,24.80
2022-12-12T06:19:21.531Z,25.00
2022-12-12T06:20:21.529Z,24.40
2022-12-12T06:21:21.502Z,24.50
2022-12-12T06:22:21.547Z,25.20
2022-12-12T06:23:21.486Z,25.60
2022-12-12T06:24:21.455Z,24.40
2022-12-12T06:25:21.484Z,24.40
2022-12-12T06:26:21.465Z,24.90
2022-12-12T06:27:21.451Z,24.80
2022-12-12T06:28:21.421Z,24.70
2022-12-12T06:29:21.428Z,24.40
2022-12-12T06:30:21.403Z,25.70
2022-12-12T06:31:21.475Z,24.90
2022-12-12T06:32:21.380Z,24.80
2022-12-12T06:33:21.364Z,25.10
2022-12-12T06:34:21.438Z,24.10
2022-12-12T06:35:21.343Z,24.10
2022-12-12T06:36:21.349Z,24.90
2022-12-12T06:37:21.334Z,25.00
2022-12-12T06:38:21.371Z,24.30
2022-12-12T06:39:21.320Z,24.60
2022-12-12T06:40:21.305Z,25.00
2022-12-12T06:41:21.281Z,24.50
2022-12-12T06:42:23.328Z,25.00
2022-12-12T06:43:21.253Z,24.00
2022-12-12T06:44:21.276Z,23.60
2022-12-12T06:45:21.240Z,23.90
2022-12-12T06:46:21.274Z,23.80
2022-12-12T06:47:21.217Z,24.60
2022-12-12T06:48:23.269Z,24.80
2022-12-12T06:49:21.193Z,23.10
2022-12-12T06:50:23.868Z,23.90
2022-12-12T06:51:21.169Z,24.10
2022-12-12T06:52:21.170Z,23.70
2022-12-12T06:53:21.154Z,24.80
2022-12-12T06:54:21.175Z,24.20
2022-12-12T06:55:21.182Z,25.10
2022-12-12T06:56:21.119Z,24.30
2022-12-12T06:57:21.134Z,24.40
2022-12-12T06:58:21.096Z,24.90
2022-12-12T06:59:21.092Z,24.30
2022-12-12T07:00:21.072Z,24.70
2022-12-12T07:01:21.108Z,24.10
2022-12-12T07:02:27.584Z,24.00
2022-12-12T07:03:22.041Z,23.60
2022-12-12T07:04:21.039Z,24.10
2022-12-12T07:05:21.029Z,24.40
2022-12-12T07:06:21.028Z,24.40
2022-12-12T07:07:21.008Z,23.90
2022-12-12T07:08:21.063Z,24.20
2022-12-12T07:09:20.981Z,24.90
2022-12-12T07:10:21.529Z,24.00
2022-12-12T07:11:20.959Z,23.50
2022-12-12T07:12:20.960Z,24.70
2022-12-12T07:13:20.935Z,23.50
2022-12-12T07:14:20.913Z,23.10
2022-12-12T07:15:20.939Z,23.00
2022-12-12T07:16:21.041Z,24.10
2022-12-12T07:17:20.888Z,23.20
2022-12-12T07:18:20.882Z,23.90
2022-12-12T07:19:20.898Z,23.70
2022-12-12T07:20:20.850Z,23.60
2022-12-12T07:21:20.846Z,23.20
2022-12-12T07:22:20.830Z,24.00
2022-12-12T07:23:20.832Z,22.80
2022-12-12T07:24:20.808Z,23.70
2022-12-12T07:25:20.860Z,22.10
2022-12-12T07:26:20.817Z,23.70
2022-12-12T07:27:21.939Z,23.20
2022-12-12T07:28:20.767Z,23.70
2022-12-12T07:29:20.787Z,24.90
2022-12-12T07:30:20.764Z,24.60
2022-12-12T07:31:20.835Z,24.00
2022-12-12T07:32:20.739Z,25.30
2022-12-12T07:33:20.720Z,23.50
2022-12-12T07:34:20.712Z,25.90
2022-12-12T07:35:20.719Z,24.30
2022-12-12T07:36:20.685Z,22.90
2022-12-12T07:37:20.674Z,23.30
2022-12-12T07:38:20.664Z,23.20
2022-12-12T07:39:21.258Z,25.20
2022-12-12T07:40:20.647Z,25.00
2022-12-12T07:41:20.692Z,25.50
2022-12-12T07:42:20.651Z,24.50
2022-12-12T07:43:20.609Z,24.10
2022-12-12T07:44:20.605Z,24.00
2022-12-12T07:45:20.986Z,23.90
2022-12-12T07:46:20.672Z,24.70
2022-12-12T07:47:20.569Z,23.40
2022-12-12T07:48:20.557Z,22.20
2022-12-12T07:49:20.563Z,22.60
2022-12-12T07:50:20.527Z,23.70
2022-12-12T07:51:20.543Z,22.20
2022-12-12T07:52:20.544Z,22.80
2022-12-12T07:53:20.502Z,23.00
2022-12-12T07:54:20.492Z,24.40
2022-12-12T07:55:20.484Z,24.80
2022-12-12T07:56:20.474Z,23.90
2022-12-12T07:57:20.470Z,23.70
2022-12-12T07:58:20.483Z,24.40
2022-12-12T07:59:20.446Z,23.30
2022-12-12T08:00:20.415Z,24.50
2022-12-12T08:01:20.487Z,23.30
2022-12-12T08:02:20.505Z,24.20
2022-12-12T08:03:20.428Z,25.00
2022-12-12T08:04:20.483Z,24.40
2022-12-12T08:05:20.476Z,23.00
2022-12-12T08:06:20.354Z,23.90
2022-12-12T08:07:20.382Z,24.20
2022-12-12T08:08:20.427Z,23.80
2022-12-12T08:09:20.324Z,22.30
2022-12-12T08:10:20.321Z,22.90
2022-12-12T08:11:20.303Z,22.40
2022-12-12T08:12:20.312Z,24.50
2022-12-12T08:13:20.324Z,23.90
2022-12-12T08:14:20.295Z,23.50
2022-12-12T08:15:20.258Z,23.30
2022-12-12T08:16:20.325Z,24.30
2022-12-12T08:17:20.250Z,24.10
2022-12-12T08:18:21.275Z,23.00
2022-12-12T08:19:20.234Z,23.80
2022-12-12T08:20:20.313Z,23.80
2022-12-12T08:21:25.190Z,24.80
2022-12-12T08:22:21.203Z,23.80
2022-12-12T08:23:20.179Z,24.00
2022-12-12T08:24:20.158Z,23.30
2022-12-12T08:25:20.199Z,23.40
2022-12-12T08:26:20.134Z,24.40
2022-12-12T08:27:20.787Z,25.10
2022-12-12T08:28:20.116Z,23.40
2022-12-12T08:29:20.112Z,24.40
2022-12-12T08:30:20.111Z,23.70
2022-12-12T08:31:20.170Z,23.10
2022-12-12T08:32:20.088Z,25.20
2022-12-12T08:33:20.065Z,25.40
2022-12-12T08:34:20.058Z,23.80
2022-12-12T08:35:20.037Z,24.00
2022-12-12T08:36:20.035Z,22.60
2022-12-12T08:37:20.063Z,24.10
2022-12-12T08:38:20.037Z,24.90
2022-12-12T08:39:19.994Z,24.40
2022-12-12T08:40:20.002Z,23.50
2022-12-12T08:41:19.991Z,24.10
2022-12-12T08:42:19.966Z,23.80
2022-12-12T08:43:19.971Z,23.10
2022-12-12T08:44:19.994Z,23.70
2022-12-12T08:45:19.932Z,24.80
2022-12-12T08:46:20.083Z,24.00
2022-12-12T08:47:19.936Z,23.40
2022-12-12T08:48:19.889Z,23.80
2022-12-12T08:49:19.897Z,24.70
2022-12-12T08:50:19.897Z,23.70
2022-12-12T08:51:19.868Z,23.00
2022-12-12T08:52:19.865Z,22.90
2022-12-12T08:53:19.868Z,23.70
2022-12-12T08:54:19.847Z,24.10
2022-12-12T08:55:19.819Z,24.10
2022-12-12T08:56:19.852Z,23.50
2022-12-12T08:57:25.659Z,23.50
2022-12-12T08:58:20.811Z,24.10
2022-12-12T08:59:19.850Z,22.00
2022-12-12T09:00:19.774Z,24.20
2022-12-12T09:01:19.898Z,23.00
2022-12-12T09:02:19.926Z,23.70
2022-12-12T09:03:23.555Z,23.60
2022-12-12T09:04:20.727Z,24.30
2022-12-12T09:05:19.704Z,24.40
2022-12-12T09:06:19.700Z,22.80
2022-12-12T09:07:19.683Z,22.60
2022-12-12T09:08:19.752Z,22.50
2022-12-12T09:09:19.660Z,23.50
2022-12-12T09:10:19.660Z,24.60
2022-12-12T09:11:19.645Z,23.80
2022-12-12T09:12:20.645Z,24.20
2022-12-12T09:13:19.614Z,23.30
2022-12-12T09:14:19.642Z,23.80
2022-12-12T09:15:19.607Z,24.40
2022-12-12T09:16:19.673Z,22.20
2022-12-12T09:17:19.577Z,24.60
2022-12-12T09:18:19.593Z,22.70
2022-12-12T09:19:19.556Z,23.20
2022-12-12T09:20:19.589Z,24.00
2022-12-12T09:21:19.535Z,24.10
2022-12-12T09:22:19.534Z,24.90
2022-12-12T09:23:19.516Z,23.90
2022-12-12T09:24:19.510Z,23.90
2022-12-12T09:25:19.493Z,24.30
2022-12-12T09:26:19.505Z,23.70
2022-12-12T09:27:19.462Z,23.40
2022-12-12T09:28:20.519Z,23.60
2022-12-12T09:29:19.455Z,23.50
2022-12-12T09:30:19.443Z,23.30
2022-12-12T09:31:19.497Z,22.70
2022-12-12T09:32:24.360Z,23.80
2022-12-12T09:33:20.398Z,23.30
2022-12-12T09:34:19.438Z,22.80
2022-12-12T09:35:19.378Z,23.30
2022-12-12T09:36:19.378Z,23.80
2022-12-12T09:37:19.357Z,23.50
2022-12-12T09:38:19.353Z,21.80
2022-12-12T09:39:19.358Z,22.30
2022-12-12T09:40:19.328Z,21.90
2022-12-12T09:41:19.311Z,22.60
2022-12-12T09:42:19.305Z,22.80
2022-12-12T09:43:19.286Z,22.70
2022-12-12T09:44:19.289Z,23.10
2022-12-12T09:45:19.296Z,22.10
2022-12-12T09:46:19.264Z,22.60
2022-12-12T09:47:19.238Z,22.80
2022-12-12T09:48:19.247Z,22.60
2022-12-12T09:49:19.235Z,21.90
2022-12-12T09:50:19.238Z,22.20
2022-12-12T09:51:19.232Z,23.00
2022-12-12T09:52:19.201Z,23.30
2022-12-12T09:53:19.168Z,23.00
2022-12-12T09:54:19.199Z,21.80
2022-12-12T09:55:19.154Z,22.10
2022-12-12T09:56:19.165Z,23.10
2022-12-12T09:57:19.138Z,22.10
2022-12-12T09:58:19.124Z,22.50
2022-12-12T09:59:19.151Z,23.30
2022-12-12T10:00:19.102Z,23.50
2022-12-12T10:01:19.159Z,21.30
2022-12-12T10:02:19.183Z,23.20
2022-12-12T10:03:19.084Z,22.30
2022-12-12T10:04:19.071Z,22.70
2022-12-12T10:05:19.071Z,22.70
2022-12-12T10:06:48.466Z,21.90
2022-12-12T10:07:20.018Z,23.70
2022-12-12T10:08:19.119Z,23.30
2022-12-12T10:09:19.002Z,22.60
2022-12-12T10:10:19.007Z,21.40
2022-12-12T10:11:18.999Z,22.70
2022-12-12T10:12:18.974Z,22.00
2022-12-12T10:13:18.959Z,22.10
2022-12-12T10:14:18.961Z,21.60
2022-12-12T10:15:18.960Z,22.40
2022-12-12T10:16:18.955Z,20.80
2022-12-12T10:17:18.929Z,21.10
2022-12-12T10:18:18.904Z,22.60
2022-12-12T10:19:18.896Z,21.70
2022-12-12T10:20:18.873Z,21.90
2022-12-12T10:21:18.895Z,20.80
2022-12-12T10:22:24.094Z,21.30
2022-12-12T10:23:19.858Z,20.50
2022-12-12T10:24:18.852Z,20.50
2022-12-12T10:25:18.829Z,20.30
2022-12-12T10:26:18.810Z,21.40
2022-12-12T10:27:18.812Z,20.50
2022-12-12T10:28:18.800Z,20.80
2022-12-12T10:29:18.793Z,20.80
2022-12-12T10:30:18.776Z,20.80
2022-12-12T10:31:18.837Z,20.30
2022-12-12T10:32:18.753Z,20.90
2022-12-12T10:33:18.800Z,19.50
2022-12-12T10:34:18.736Z,20.20
2022-12-12T10:35:24.517Z,20.00
2022-12-12T10:36:19.706Z,21.00
2022-12-12T10:37:18.685Z,20.60
2022-12-12T10:38:18.703Z,21.10
2022-12-12T10:39:18.692Z,20.20
2022-12-12T10:40:18.837Z,19.50
2022-12-12T10:41:18.645Z,20.70
2022-12-12T10:42:18.679Z,20.00
2022-12-12T10:43:18.656Z,20.10
2022-12-12T10:44:18.628Z,19.90
2022-12-12T10:45:18.609Z,18.70
2022-12-12T10:46:18.722Z,19.40
2022-12-12T10:47:18.579Z,19.10
2022-12-12T10:48:18.578Z,18.30
2022-12-12T10:49:18.586Z,18.00
2022-12-12T10:50:18.671Z,18.60
2022-12-12T10:51:18.533Z,18.10
2022-12-12T10:52:18.540Z,17.00
2022-12-12T10:53:18.527Z,17.10
2022-12-12T10:54:18.523Z,16.10
2022-12-12T10:55:18.580Z,17.70
2022-12-12T10:56:18.480Z,17.80
2022-12-12T10:57:20.668Z,18.00
2022-12-12T10:58:18.461Z,19.10
2022-12-12T10:59:19.595Z,18.00
2022-12-12T11:00:18.567Z,17.60
2022-12-12T11:01:18.498Z,16.90
2022-12-12T11:02:18.535Z,17.30
2022-12-12T11:03:18.463Z,16.60
2022-12-12T11:04:18.402Z,15.40
2022-12-12T11:05:18.392Z,15.40
2022-12-12T11:06:18.396Z,14.90
2022-12-12T11:07:18.375Z,14.10
2022-12-12T11:08:18.423Z,14.10
2022-12-12T11:09:18.345Z,13.00
2022-12-12T11:10:18.348Z,12.50
2022-12-12T11:11:18.328Z,12.90
2022-12-12T11:12:18.322Z,12.70
2022-12-12T11:13:18.310Z,11.90
2022-12-12T11:14:18.281Z,12.10
2022-12-12T11:15:18.274Z,12.10
2022-12-12T11:16:18.313Z,11.90
2022-12-12T11:17:18.321Z,11.80
2022-12-12T11:18:18.243Z,11.20
2022-12-12T11:19:18.250Z,12.00
2022-12-12T11:20:18.379Z,11.90
2022-12-12T11:21:18.204Z,12.20
2022-12-12T11:22:18.206Z,12.70
2022-12-12T11:23:19.249Z,13.20
2022-12-12T11:24:18.182Z,12.40
2022-12-12T11:25:18.170Z,13.40
2022-12-12T11:26:18.168Z,13.20
2022-12-12T11:27:18.145Z,12.30
2022-12-12T11:28:18.127Z,12.60
2022-12-12T11:29:18.119Z,13.40
2022-12-12T11:30:18.129Z,13.20
2022-12-12T11:31:18.176Z,13.20
2022-12-12T11:32:18.085Z,13.40
2022-12-12T11:33:18.072Z,13.80
2022-12-12T11:34:18.057Z,14.50
2022-12-12T11:35:18.055Z,14.80
2022-12-12T11:36:18.074Z,14.20
2022-12-12T11:37:18.025Z,14.20
2022-12-12T11:38:18.016Z,14.60
2022-12-12T11:39:18.009Z,15.10
2022-12-12T11:40:17.995Z,15.10
2022-12-12T11:41:17.982Z,15.90
2022-12-12T11:42:18.033Z,14.90
2022-12-12T11:43:17.968Z,15.80
2022-12-12T11:44:20.177Z,16.30
2022-12-12T11:45:17.929Z,16.10
2022-12-12T11:46:17.967Z,17.00
2022-12-12T11:47:17.913Z,17.20
2022-12-12T11:48:17.928Z,17.70
2022-12-12T11:49:17.902Z,17.30
2022-12-12T11:50:17.889Z,18.00
2022-12-12T11:51:17.875Z,18.20
2022-12-12T11:52:17.887Z,17.90
2022-12-12T11:53:17.847Z,17.70
2022-12-12T11:54:17.852Z,17.80
2022-12-12T11:55:17.831Z,19.10
2022-12-12T11:56:17.826Z,18.90
2022-12-12T11:57:17.812Z,18.80
2022-12-12T11:58:17.809Z,18.90
2022-12-12T11:59:17.821Z,20.30
2022-12-12T12:00:17.773Z,17.90
2022-12-12T12:01:17.757Z,18.50
2022-12-12T12:02:17.766Z,19.00
2022-12-12T12:03:17.792Z,19.00
2022-12-12T12:04:19.814Z,18.60
2022-12-12T12:05:18.326Z,19.10
2022-12-12T12:06:18.072Z,18.80
2022-12-12T12:07:17.708Z,19.00
2022-12-12T12:08:18.445Z,18.80
2022-12-12T12:09:17.665Z,19.10
2022-12-12T12:10:23.930Z,19.70
2022-12-12T12:11:18.650Z,19.80
2022-12-12T12:12:17.662Z,20.70
2022-12-12T12:13:17.623Z,18.50
2022-12-12T12:14:17.655Z,18.80
2022-12-12T12:15:17.598Z,21.30
2022-12-12T12:16:17.670Z,23.90
2022-12-12T12:17:17.613Z,23.30
2022-12-12T12:18:17.621Z,22.70
2022-12-12T12:19:17.582Z,21.10
2022-12-12T12:20:17.546Z,21.10
2022-12-12T12:21:17.563Z,21.50
2022-12-12T12:22:17.527Z,20.70
2022-12-12T12:23:18.250Z,20.80
2022-12-12T12:24:17.514Z,20.50
2022-12-12T12:25:18.545Z,21.50
2022-12-12T12:26:17.478Z,21.30
2022-12-12T12:27:17.483Z,22.40
2022-12-12T12:28:17.457Z,21.90
2022-12-12T12:29:17.441Z,21.30
2022-12-12T12:30:17.457Z,21.20
2022-12-12T12:31:17.470Z,21.30
2022-12-12T12:32:17.417Z,22.10
2022-12-12T12:33:17.411Z,20.60
2022-12-12T12:34:17.392Z,21.30
2022-12-12T12:35:18.434Z,20.20
2022-12-12T12:36:21.088Z,21.70
2022-12-12T12:37:17.353Z,20.60
2022-12-12T12:38:17.357Z,21.00
2022-12-12T12:39:17.352Z,22.40
2022-12-12T12:40:17.338Z,21.40
2022-12-12T12:41:17.317Z,21.90
2022-12-12T12:42:17.317Z,22.80
2022-12-12T12:43:17.314Z,21.80
2022-12-12T12:44:17.342Z,21.60
2022-12-12T12:45:17.293Z,20.70
2022-12-12T12:46:17.339Z,21.00
2022-12-12T12:47:17.268Z,22.60
2022-12-12T12:48:17.581Z,21.80
2022-12-12T12:49:17.240Z,21.40
2022-12-12T12:50:17.681Z,21.60
2022-12-12T12:51:17.203Z,23.40
2022-12-12T12:52:17.190Z,22.50